Main page
Satellite images 10-day forecastsClimateMarine weather Cyclones Lightning AirportsFAQ Newsletter About
Weather : Europe Africa North America South America Asia Australia-Oceania Others
Languages Contact

Liège, Belgium

Liège Airport

latitude: 50-39N, longitude: 005-27E, elevation: 186 m


METAR: EBLG 272350Z 18005KT 160V220 CAVOK 01/M02 Q1021 NOSIG
TAF: EBLG 272300Z 2800/0106 19005KT CAVOK BECMG 2819/2822 19016G28KT BKN012 TEMPO 2823/0106 4500 -RADZ BKN004

Time: 01:26 (00:26 UTC)

Current weather observation

The report was made 36 minutes ago, at 23:50 UTC
Wind 5 kt from the South, varying between South/Southeast and Southwest
Temperature 1°C
Humidity 80%
Pressure 1021 hPa
Visibility 10 km or more
no clouds below 1500 m and no cumulonimbus

Change units

Forecast

The report was made 1 hour and 26 minutes ago, at 23:00 UTC
Forecast valid from 28 at 00 UTC to 01 at 06 UTC
Wind 5 kt from the South
Visibility 10 km or more
no clouds below 1500 m and no cumulonimbus
Becoming
from 28 at 19 UTC to 28 at 22 UTC
Wind 16 kt from the South with gusts up to 28 kt
Broken clouds at a height of 1200 ft
Temporary
from 28 at 23 UTC to 01 at 06 UTC
Visibility: 4500 m
Broken clouds at a height of 400 ft
light rain, drizzle
The information on this site is subject to a disclaimer
Weather : Europe Africa North America South America Asia Australia-Oceania Others
Satellite images 10-day forecastsClimateMarine weather Cyclones Lightning AirportsFAQ Languages Contact Newsletter About